Time;durP1;ratioP1;P1;durP2;ratioP2;P2;SDS_P1;SDS_P2;PMS_P1;PMS_P2;Temp;Humidity;BMP_temperature;BMP_pressure;BME280_temperature;BME280_humidity;BME280_pressure;Samples;Min_cycle;Max_cycle;Signal;HPM_P1;HPM_P2
2021/09/08 00:01:14;;;;;;;12.77;8.52;;;22.90;45.60;;;;;;4149272;28;20066;-47
2021/09/08 00:03:16;;;;;;;10.68;7.05;;;22.90;45.50;;;;;;4149221;28;20052;-49
2021/09/08 00:05:18;;;;;;;17.10;7.97;;;22.90;45.50;;;;;;4149295;28;20069;-49
2021/09/08 00:07:20;;;;;;;11.85;6.57;;;22.80;45.40;;;;;;4149268;28;20042;-52
2021/09/08 00:09:22;;;;;;;13.77;6.78;;;22.80;45.20;;;;;;4149093;28;20093;-51
2021/09/08 00:11:25;;;;;;;10.27;6.50;;;22.80;44.90;;;;;;4149061;28;20048;-48
2021/09/08 00:13:29;;;;;;;10.60;6.82;;;22.80;44.80;;;;;;4150267;28;20052;-46
2021/09/08 00:15:31;;;;;;;8.35;5.68;;;22.80;44.60;;;;;;4150489;28;20057;-46
2021/09/08 00:17:33;;;;;;;12.38;6.07;;;22.80;44.40;;;;;;4182466;28;20087;-46
2021/09/08 00:19:35;;;;;;;9.00;5.55;;;22.70;44.40;;;;;;4150551;28;20057;-47
2021/09/08 00:21:37;;;;;;;9.23;5.78;;;22.80;44.30;;;;;;4149210;28;20050;-50
2021/09/08 00:23:40;;;;;;;8.23;5.10;;;22.70;44.20;;;;;;4150142;28;20039;-47
2021/09/08 00:25:42;;;;;;;8.55;5.68;;;22.70;44.10;;;;;;4150271;28;20065;-48
2021/09/08 00:27:44;;;;;;;8.07;6.07;;;22.70;44.00;;;;;;4152028;28;20126;-47
2021/09/08 00:29:46;;;;;;;13.30;5.35;;;22.70;44.00;;;;;;4152244;28;20114;-44
2021/09/08 00:31:48;;;;;;;8.90;5.18;;;22.70;44.10;;;;;;4152209;28;20053;-45
2021/09/08 00:33:50;;;;;;;9.07;4.93;;;22.70;44.00;;;;;;4152033;28;20046;-45
2021/09/08 00:35:52;;;;;;;7.78;4.57;;;22.60;43.90;;;;;;4152100;28;20050;-45
2021/09/08 00:37:54;;;;;;;6.78;5.13;;;22.60;43.90;;;;;;4152018;28;20049;-45
2021/09/08 00:39:56;;;;;;;10.98;4.57;;;22.60;43.80;;;;;;4151862;28;20072;-46
2021/09/08 00:41:58;;;;;;;6.35;4.60;;;22.60;43.80;;;;;;4151974;28;20073;-45
2021/09/08 00:44:09;;;;;;;6.65;4.55;;;22.60;43.80;;;;;;4151995;28;20069;-46
2021/09/08 00:46:11;;;;;;;6.40;3.97;;;22.60;43.70;;;;;;4151962;28;20038;-45
2021/09/08 00:48:13;;;;;;;11.43;4.63;;;22.60;43.70;;;;;;4151856;28;20043;-45
2021/09/08 00:50:15;;;;;;;6.70;4.10;;;22.60;43.60;;;;;;4150717;28;20141;-46
2021/09/08 00:52:17;;;;;;;6.28;4.35;;;22.50;43.60;;;;;;4152013;28;20114;-46
2021/09/08 00:54:22;;;;;;;5.10;4.20;;;22.60;43.50;;;;;;4151059;28;20102;-46
2021/09/08 00:56:26;;;;;;;8.10;4.00;;;22.50;43.40;;;;;;4151608;28;20117;-46
2021/09/08 00:58:28;;;;;;;6.43;3.63;;;22.50;43.50;;;;;;4151662;28;20106;-45
2021/09/08 01:00:30;;;;;;;7.00;4.25;;;22.50;43.30;;;;;;4151673;28;20455;-47
2021/09/08 01:02:32;;;;;;;6.40;3.63;;;22.50;43.30;;;;;;4151655;28;20073;-47
2021/09/08 01:04:35;;;;;;;6.75;3.70;;;22.50;43.30;;;;;;4151715;28;20039;-45
2021/09/08 01:06:37;;;;;;;7.28;3.50;;;22.50;43.30;;;;;;4151697;28;20094;-45
2021/09/08 01:08:39;;;;;;;7.82;3.60;;;22.50;43.20;;;;;;4151546;28;20043;-45
2021/09/08 01:10:41;;;;;;;4.55;3.10;;;22.50;43.10;;;;;;4151654;28;20044;-47
2021/09/08 01:12:44;;;;;;;6.25;3.80;;;22.40;43.10;;;;;;4151476;28;20065;-46
2021/09/08 01:14:46;;;;;;;8.25;3.88;;;22.50;43.10;;;;;;4151506;28;20106;-45
2021/09/08 01:16:52;;;;;;;5.63;3.42;;;22.40;43.10;;;;;;4151480;28;20520;-45
2021/09/08 01:18:54;;;;;;;5.85;3.28;;;22.40;43.10;;;;;;4151325;28;20049;-46
2021/09/08 01:20:56;;;;;;;5.63;3.55;;;22.40;43.00;;;;;;4151428;28;20052;-46
2021/09/08 01:22:58;;;;;;;7.47;3.55;;;22.40;43.00;;;;;;4151207;28;20101;-48
2021/09/08 01:25:00;;;;;;;7.95;3.40;;;22.40;42.90;;;;;;4151306;28;20042;-45
2021/09/08 01:27:03;;;;;;;9.98;3.80;;;22.40;42.90;;;;;;4151319;28;20046;-47
2021/09/08 01:29:06;;;;;;;5.63;3.50;;;22.40;42.80;;;;;;4151238;28;20038;-45
2021/09/08 01:31:09;;;;;;;7.47;3.20;;;22.40;42.80;;;;;;4151158;28;20042;-45
2021/09/08 01:33:14;;;;;;;4.65;3.10;;;22.40;42.70;;;;;;4151241;28;20042;-45
2021/09/08 01:35:18;;;;;;;5.82;3.83;;;22.40;42.70;;;;;;4151154;28;20081;-44
2021/09/08 01:37:20;;;;;;;6.55;3.70;;;22.40;42.60;;;;;;4151183;28;20043;-45
2021/09/08 01:39:22;;;;;;;4.57;3.22;;;22.40;42.50;;;;;;4150948;28;20061;-47
2021/09/08 01:41:24;;;;;;;7.78;4.05;;;22.40;42.60;;;;;;4151135;28;20045;-46
2021/09/08 01:43:26;;;;;;;5.20;3.53;;;22.40;42.40;;;;;;4150932;28;20080;-45
2021/09/08 01:45:28;;;;;;;4.55;3.15;;;22.40;42.40;;;;;;4151002;28;20102;-45
2021/09/08 01:47:30;;;;;;;4.75;2.97;;;22.40;42.30;;;;;;4150884;28;20057;-50
2021/09/08 01:49:33;;;;;;;5.35;2.92;;;22.40;42.40;;;;;;4150986;28;20097;-48
2021/09/08 01:51:35;;;;;;;5.32;3.08;;;22.30;42.30;;;;;;4150785;28;20132;-45
2021/09/08 01:53:37;;;;;;;6.03;3.45;;;22.30;42.30;;;;;;4150780;28;20051;-45
2021/09/08 01:55:39;;;;;;;6.32;3.13;;;22.30;42.30;;;;;;4150807;28;20053;-45
2021/09/08 01:57:41;;;;;;;7.38;3.72;;;22.30;42.20;;;;;;4150825;28;20050;-45
2021/09/08 01:59:43;;;;;;;11.00;4.28;;;22.30;42.30;;;;;;4150772;28;20104;-45
2021/09/08 02:01:45;;;;;;;4.85;3.03;;;22.30;42.10;;;;;;4150702;28;20047;-47
2021/09/08 02:03:47;;;;;;;5.07;2.92;;;22.30;42.00;;;;;;4150597;28;20038;-47
2021/09/08 02:05:50;;;;;;;4.38;2.85;;;22.30;42.00;;;;;;4149638;28;20502;-46
2021/09/08 02:07:52;;;;;;;6.10;3.33;;;22.30;42.10;;;;;;4149745;28;20062;-46
2021/09/08 02:09:54;;;;;;;6.47;3.17;;;22.30;42.00;;;;;;4150630;28;20038;-45
2021/09/08 02:11:56;;;;;;;4.85;2.90;;;22.30;41.90;;;;;;4150702;28;20042;-44
2021/09/08 02:13:58;;;;;;;3.53;2.50;;;22.30;42.00;;;;;;4149293;28;20081;-47
2021/09/08 02:16:00;;;;;;;5.35;3.03;;;22.30;42.00;;;;;;4150250;28;20046;-47
2021/09/08 02:18:02;;;;;;;4.53;2.70;;;22.20;41.90;;;;;;4150008;28;20065;-44
2021/09/08 02:20:05;;;;;;;5.13;2.60;;;22.30;41.90;;;;;;4149940;28;20042;-46
2021/09/08 02:22:08;;;;;;;5.30;3.00;;;22.30;41.90;;;;;;4150093;28;20090;-47
2021/09/08 02:24:09;;;;;;;4.90;2.50;;;22.30;41.90;;;;;;4150093;28;20097;-44
2021/09/08 02:26:12;;;;;;;5.72;2.63;;;22.30;41.90;;;;;;4149891;28;20038;-45
2021/09/08 02:28:18;;;;;;;4.38;2.42;;;22.30;41.80;;;;;;4149484;28;20035;-45
2021/09/08 02:30:23;;;;;;;3.35;2.40;;;22.30;41.80;;;;;;4149966;28;20046;-45
2021/09/08 02:32:25;;;;;;;6.05;2.60;;;22.30;41.70;;;;;;4150110;28;20043;-45
2021/09/08 02:34:27;;;;;;;3.80;2.40;;;22.30;41.80;;;;;;4150254;28;20054;-45
2021/09/08 02:36:30;;;;;;;3.78;2.47;;;22.30;41.80;;;;;;4150154;28;20057;-47
2021/09/08 02:38:33;;;;;;;4.57;2.72;;;22.30;41.70;;;;;;4150202;28;20074;-45
2021/09/08 02:40:35;;;;;;;5.65;2.72;;;22.30;41.70;;;;;;4150138;28;20069;-46
2021/09/08 02:42:37;;;;;;;4.50;2.78;;;22.30;41.60;;;;;;4150236;28;20049;-45
2021/09/08 02:44:39;;;;;;;3.55;2.80;;;22.30;41.70;;;;;;4150161;28;20073;-48
2021/09/08 02:46:41;;;;;;;7.75;3.13;;;22.30;41.70;;;;;;4149979;28;20088;-49
2021/09/08 02:48:43;;;;;;;3.50;2.42;;;22.20;41.70;;;;;;4150188;28;20043;-45
2021/09/08 02:50:45;;;;;;;5.55;2.85;;;22.30;41.70;;;;;;4149929;28;20130;-44
2021/09/08 02:52:47;;;;;;;8.05;2.33;;;22.30;41.70;;;;;;4149903;28;20046;-44
2021/09/08 02:54:49;;;;;;;6.30;2.67;;;22.30;41.70;;;;;;4149210;28;20038;-44
2021/09/08 02:56:51;;;;;;;6.10;2.95;;;22.20;41.60;;;;;;4150148;28;20049;-44
2021/09/08 02:58:53;;;;;;;3.15;2.15;;;22.20;41.60;;;;;;4149090;28;20054;-45
2021/09/08 03:00:56;;;;;;;5.95;2.60;;;22.20;41.60;;;;;;4149929;28;20070;-46
2021/09/08 03:02:58;;;;;;;6.18;2.60;;;22.30;41.60;;;;;;4148867;28;20113;-45
2021/09/08 03:05:00;;;;;;;11.63;3.20;;;22.30;41.60;;;;;;4149702;28;20038;-46
2021/09/08 03:07:03;;;;;;;4.88;2.20;;;22.20;41.60;;;;;;4149559;28;20066;-47
2021/09/08 03:09:05;;;;;;;6.57;2.72;;;22.20;41.60;;;;;;4149349;28;20145;-51
2021/09/08 03:11:07;;;;;;;4.22;2.47;;;22.20;41.50;;;;;;4149345;28;20102;-50
2021/09/08 03:13:14;;;;;;;5.35;2.88;;;22.20;41.60;;;;;;4149506;28;20064;-44
2021/09/08 03:15:16;;;;;;;5.55;2.95;;;22.20;41.70;;;;;;4149511;28;20046;-45
2021/09/08 03:17:18;;;;;;;7.70;3.17;;;22.20;41.60;;;;;;4151314;28;20104;-50
2021/09/08 03:19:20;;;;;;;6.22;2.85;;;22.20;41.60;;;;;;4152785;28;20042;-48
2021/09/08 03:21:22;;;;;;;6.75;3.00;;;22.20;41.70;;;;;;4151646;28;20110;-46
2021/09/08 03:23:24;;;;;;;6.45;2.45;;;22.10;41.70;;;;;;4151549;28;20057;-51
2021/09/08 03:25:27;;;;;;;4.63;2.83;;;22.10;41.60;;;;;;4152756;28;20042;-48
2021/09/08 03:27:29;;;;;;;4.55;2.58;;;22.10;41.70;;;;;;4152877;28;20102;-50
2021/09/08 03:29:31;;;;;;;6.43;2.78;;;22.10;41.80;;;;;;4152350;28;20584;-45
2021/09/08 03:31:33;;;;;;;6.53;2.72;;;22.10;41.80;;;;;;4152414;28;20110;-46
2021/09/08 03:33:35;;;;;;;6.78;2.53;;;22.20;41.70;;;;;;4152348;28;20056;-48
2021/09/08 03:35:37;;;;;;;7.55;3.10;;;22.10;41.70;;;;;;4152459;28;20050;-51
2021/09/08 03:37:40;;;;;;;6.30;3.10;;;22.10;41.70;;;;;;4152538;28;20069;-46
2021/09/08 03:39:41;;;;;;;5.43;2.47;;;22.10;41.60;;;;;;4151554;28;20073;-48
2021/09/08 03:41:43;;;;;;;3.88;2.90;;;22.10;41.70;;;;;;4152192;28;20042;-47
2021/09/08 03:43:45;;;;;;;6.28;2.70;;;22.10;41.50;;;;;;4152223;28;20046;-46
2021/09/08 03:45:48;;;;;;;6.90;3.03;;;22.10;41.60;;;;;;4152202;28;20085;-47
2021/09/08 03:47:50;;;;;;;7.75;2.97;;;22.00;41.60;;;;;;4152220;28;20045;-46
2021/09/08 03:49:52;;;;;;;4.30;2.47;;;22.10;41.60;;;;;;4152110;28;20062;-46
2021/09/08 03:51:54;;;;;;;9.23;2.58;;;22.10;41.50;;;;;;4152095;28;20038;-47
2021/09/08 03:53:58;;;;;;;8.02;2.45;;;22.00;41.50;;;;;;4152065;28;20069;-46
2021/09/08 03:56:00;;;;;;;6.93;2.60;;;22.00;41.50;;;;;;4152030;28;20057;-46
2021/09/08 03:58:02;;;;;;;4.80;2.80;;;22.10;41.50;;;;;;4151986;28;20034;-48
2021/09/08 04:00:06;;;;;;;4.50;2.80;;;22.00;41.40;;;;;;4151990;28;20042;-45
2021/09/08 04:02:08;;;;;;;6.63;2.65;;;22.10;41.40;;;;;;4152074;28;20053;-46
2021/09/08 04:04:11;;;;;;;7.40;2.72;;;22.10;41.30;;;;;;4152125;28;20110;-48
2021/09/08 04:06:13;;;;;;;6.82;2.60;;;22.00;41.40;;;;;;4152223;28;20143;-47
2021/09/08 04:08:15;;;;;;;8.98;2.78;;;22.00;41.50;;;;;;4151382;28;20041;-45
2021/09/08 04:10:18;;;;;;;7.32;3.30;;;22.00;41.50;;;;;;4151295;28;20102;-46
2021/09/08 04:12:21;;;;;;;5.45;3.38;;;22.00;41.40;;;;;;4152444;28;20088;-45
2021/09/08 04:14:23;;;;;;;7.25;2.60;;;22.00;41.40;;;;;;4152537;28;20065;-45
2021/09/08 04:16:25;;;;;;;7.40;2.70;;;22.00;41.40;;;;;;4152494;28;20052;-45
2021/09/08 04:18:27;;;;;;;7.03;3.03;;;22.00;41.40;;;;;;4152371;28;20046;-46
2021/09/08 04:20:29;;;;;;;6.07;2.88;;;22.00;41.40;;;;;;4152271;28;20061;-45
2021/09/08 04:22:31;;;;;;;13.50;3.97;;;22.00;41.30;;;;;;4151750;28;20098;-45
2021/09/08 04:24:33;;;;;;;10.85;3.35;;;22.00;42.10;;;;;;4151955;28;20046;-46
2021/09/08 04:26:35;;;;;;;7.60;2.97;;;22.00;41.60;;;;;;4152187;28;20042;-46
2021/09/08 04:28:37;;;;;;;7.93;3.00;;;22.00;41.40;;;;;;3806916;28;9999729;-46
2021/09/08 04:30:39;;;;;;;7.35;2.70;;;22.10;41.40;;;;;;4168008;28;20065;-51
2021/09/08 04:32:43;;;;;;;14.05;3.72;;;22.00;41.40;;;;;;4168072;28;20046;-47
2021/09/08 04:34:45;;;;;;;6.32;2.70;;;22.00;41.40;;;;;;4168197;28;20102;-49
2021/09/08 04:36:47;;;;;;;7.28;3.17;;;22.00;41.40;;;;;;4168011;28;20125;-50
2021/09/08 04:38:49;;;;;;;12.20;2.97;;;22.00;41.30;;;;;;4168035;28;20128;-48
2021/09/08 04:40:51;;;;;;;7.35;2.58;;;22.00;41.30;;;;;;4167729;28;20061;-51
2021/09/08 04:42:53;;;;;;;12.00;3.40;;;22.00;41.40;;;;;;4168071;28;20106;-46
2021/09/08 04:44:55;;;;;;;7.07;2.92;;;22.00;41.40;;;;;;4167877;28;20042;-46
2021/09/08 04:46:57;;;;;;;23.13;4.15;;;22.00;41.40;;;;;;4167750;28;20042;-46
2021/09/08 04:48:59;;;;;;;7.78;2.90;;;22.00;42.40;;;;;;4168384;28;20038;-45
2021/09/08 04:51:01;;;;;;;7.45;2.72;;;22.00;41.60;;;;;;4168141;28;20049;-46
2021/09/08 04:53:04;;;;;;;12.18;3.22;;;22.00;41.60;;;;;;4168188;28;20050;-46
2021/09/08 04:55:07;;;;;;;10.35;3.70;;;22.00;41.70;;;;;;4168189;28;20109;-45
2021/09/08 04:57:10;;;;;;;6.78;3.03;;;22.00;41.70;;;;;;4168229;28;20046;-46
2021/09/08 04:59:12;;;;;;;10.07;3.25;;;22.00;41.70;;;;;;4168195;28;20109;-46
2021/09/08 05:01:14;;;;;;;9.63;3.50;;;22.00;41.70;;;;;;4167170;28;20129;-47
2021/09/08 05:03:16;;;;;;;9.27;3.42;;;22.00;41.80;;;;;;4168140;28;20046;-45
2021/09/08 05:05:18;;;;;;;18.70;4.03;;;22.00;41.80;;;;;;4168007;28;20048;-45
2021/09/08 05:07:20;;;;;;;8.82;3.05;;;22.00;42.00;;;;;;4168059;28;20042;-46
2021/09/08 05:09:22;;;;;;;9.27;3.22;;;22.00;41.90;;;;;;4167984;28;20097;-48
2021/09/08 05:11:24;;;;;;;7.18;3.45;;;22.00;41.90;;;;;;4168066;28;20061;-48
2021/09/08 05:13:26;;;;;;;14.07;3.70;;;22.00;41.90;;;;;;4167991;28;20046;-49
2021/09/08 05:15:29;;;;;;;10.77;3.80;;;22.00;42.00;;;;;;4168007;28;20057;-49
2021/09/08 05:17:31;;;;;;;9.60;3.58;;;22.00;42.10;;;;;;4167911;28;20106;-47
2021/09/08 05:19:34;;;;;;;8.65;3.65;;;22.00;42.20;;;;;;4167931;28;20073;-50
2021/09/08 05:21:36;;;;;;;12.57;3.60;;;22.00;42.20;;;;;;4167759;28;20101;-47
2021/09/08 05:23:38;;;;;;;12.52;3.78;;;22.00;42.30;;;;;;4167814;28;20062;-46
2021/09/08 05:25:45;;;;;;;7.13;3.30;;;22.00;42.40;;;;;;4167742;28;20042;-46
2021/09/08 05:27:47;;;;;;;11.68;3.45;;;22.00;42.30;;;;;;4167780;28;20066;-46
2021/09/08 05:29:49;;;;;;;8.32;4.68;;;22.00;42.30;;;;;;4166881;28;20076;-46
2021/09/08 05:31:51;;;;;;;8.50;4.38;;;22.00;42.40;;;;;;4167644;28;20101;-46
2021/09/08 05:33:53;;;;;;;11.57;4.28;;;22.00;42.40;;;;;;4167501;28;20062;-47
2021/09/08 05:35:55;;;;;;;6.75;4.05;;;22.00;42.40;;;;;;4167542;28;20125;-47
2021/09/08 05:37:57;;;;;;;8.73;4.55;;;22.00;42.40;;;;;;4166727;28;20065;-46
2021/09/08 05:39:59;;;;;;;7.63;4.40;;;22.00;42.40;;;;;;4167337;28;20117;-46
2021/09/08 05:42:01;;;;;;;7.05;3.92;;;22.00;42.50;;;;;;4167398;28;20048;-46
2021/09/08 05:44:03;;;;;;;8.57;4.20;;;22.00;42.50;;;;;;4167382;28;20101;-46
2021/09/08 05:46:05;;;;;;;7.28;3.92;;;22.00;42.60;;;;;;4167532;28;20097;-45
2021/09/08 05:48:07;;;;;;;9.20;4.25;;;22.00;43.00;;;;;;4167271;28;20061;-48
2021/09/08 05:50:10;;;;;;;6.97;3.83;;;22.00;42.80;;;;;;4166392;28;20065;-47
2021/09/08 05:52:12;;;;;;;6.50;4.07;;;22.00;43.30;;;;;;4167325;28;20106;-47
2021/09/08 05:54:14;;;;;;;11.43;4.07;;;22.00;42.90;;;;;;4167275;28;20050;-49
2021/09/08 05:56:16;;;;;;;9.52;3.78;;;22.00;42.90;;;;;;4167338;28;20106;-52
2021/09/08 05:58:18;;;;;;;14.90;4.22;;;22.00;42.80;;;;;;4167280;28;20042;-48
2021/09/08 06:00:20;;;;;;;9.13;3.92;;;22.00;43.10;;;;;;4167313;28;20066;-46
2021/09/08 06:02:22;;;;;;;12.43;3.97;;;22.10;42.90;;;;;;4166973;28;20038;-45
2021/09/08 06:04:24;;;;;;;16.73;4.07;;;22.00;43.00;;;;;;4167080;28;20038;-46
2021/09/08 06:06:26;;;;;;;12.35;3.42;;;22.00;43.00;;;;;;4167133;28;20049;-45
2021/09/08 06:08:28;;;;;;;10.85;4.47;;;22.10;43.00;;;;;;4166967;28;20041;-49
2021/09/08 06:10:30;;;;;;;6.25;3.08;;;22.10;43.80;;;;;;4167003;28;20403;-46
2021/09/08 06:12:33;;;;;;;7.57;3.90;;;22.00;43.30;;;;;;4167093;28;20053;-45
2021/09/08 06:14:35;;;;;;;7.97;4.50;;;22.10;43.50;;;;;;4167057;28;20042;-45
2021/09/08 06:16:37;;;;;;;9.00;3.90;;;22.10;43.40;;;;;;4166965;28;20041;-51
2021/09/08 06:18:39;;;;;;;14.30;3.42;;;22.00;43.40;;;;;;4166899;28;20067;-45
2021/09/08 06:20:41;;;;;;;8.85;3.97;;;22.10;43.30;;;;;;4165743;28;20117;-47
2021/09/08 06:22:44;;;;;;;8.38;4.05;;;22.10;44.10;;;;;;4166892;28;20048;-46
2021/09/08 06:24:46;;;;;;;8.15;3.80;;;22.10;43.50;;;;;;4166843;28;20061;-46
2021/09/08 06:26:48;;;;;;;11.13;3.88;;;22.10;43.70;;;;;;4166690;28;20059;-48
2021/09/08 06:28:52;;;;;;;5.15;2.95;;;22.10;44.50;;;;;;4166790;28;20109;-48
2021/09/08 06:30:54;;;;;;;;;;;22.00;44.10;;;;;;4167241;28;20101;-46
2021/09/08 06:32:56;;;;;;;11.05;3.47;;;22.10;43.50;;;;;;4166845;28;19928;-48
2021/09/08 06:34:58;;;;;;;8.93;3.03;;;22.10;45.10;;;;;;4165893;28;20130;-47
2021/09/08 06:37:00;;;;;;;10.35;4.22;;;22.10;44.90;;;;;;4166638;28;20054;-49
2021/09/08 06:39:03;;;;;;;8.38;4.22;;;22.00;47.80;;;;;;4166752;28;20048;-50
2021/09/08 06:41:05;;;;;;;8.82;3.90;;;21.80;47.50;;;;;;4166552;28;20042;-52
2021/09/08 06:43:07;;;;;;;7.82;3.50;;;21.70;47.20;;;;;;4164602;28;20116;-50
2021/09/08 06:45:09;;;;;;;29.80;17.08;;;21.70;46.40;;;;;;4166728;28;20061;-47
2021/09/08 06:47:12;;;;;;;21.50;14.02;;;21.60;46.50;;;;;;4164510;28;20062;-48
2021/09/08 06:49:13;;;;;;;18.23;11.52;;;21.50;46.50;;;;;;4164453;28;20042;-49
2021/09/08 06:51:16;;;;;;;17.63;7.55;;;21.50;46.70;;;;;;4163893;28;20113;-49
2021/09/08 06:53:18;;;;;;;21.83;7.82;;;21.50;45.70;;;;;;4164550;28;20045;-50
2021/09/08 06:55:20;;;;;;;21.95;8.25;;;21.50;45.90;;;;;;4164442;28;20113;-48
2021/09/08 06:57:22;;;;;;;14.75;6.40;;;21.50;46.60;;;;;;4164399;28;20060;-49
2021/09/08 06:59:24;;;;;;;10.13;4.78;;;21.50;46.30;;;;;;4164359;28;20080;-50
2021/09/08 07:01:26;;;;;;;11.00;5.00;;;21.50;45.70;;;;;;4164044;28;20042;-47
2021/09/08 07:03:28;;;;;;;8.98;4.43;;;21.50;45.80;;;;;;4164360;28;20046;-47
2021/09/08 07:05:31;;;;;;;9.50;4.80;;;21.50;45.50;;;;;;4164400;28;20046;-59
2021/09/08 07:07:33;;;;;;;9.13;4.93;;;21.50;45.50;;;;;;4164672;28;20069;-51
2021/09/08 07:09:35;;;;;;;15.73;6.38;;;21.60;45.10;;;;;;4164727;28;20042;-49
2021/09/08 07:11:37;;;;;;;24.00;13.13;;;21.60;45.70;;;;;;4164835;28;20069;-46
2021/09/08 07:13:39;;;;;;;13.48;8.57;;;21.60;44.90;;;;;;4164585;28;20046;-47
2021/09/08 07:15:41;;;;;;;10.57;7.57;;;21.60;44.80;;;;;;4164108;28;20060;-47
2021/09/08 07:17:43;;;;;;;26.95;13.50;;;21.50;45.10;;;;;;4164138;28;20554;-47
2021/09/08 07:19:45;;;;;;;20.90;12.00;;;21.60;44.80;;;;;;4163307;28;20050;-47
2021/09/08 07:21:47;;;;;;;18.58;9.00;;;21.50;44.90;;;;;;4163934;28;20049;-48
2021/09/08 07:23:49;;;;;;;15.65;6.68;;;21.50;44.60;;;;;;4164858;28;20038;-45
2021/09/08 07:25:51;;;;;;;28.88;6.60;;;21.50;44.50;;;;;;4165403;28;20122;-44
2021/09/08 07:27:53;;;;;;;25.77;6.18;;;21.50;44.50;;;;;;4165830;28;20065;-45
2021/09/08 07:29:55;;;;;;;34.58;6.05;;;21.50;44.60;;;;;;4166058;28;20062;-46
2021/09/08 07:31:57;;;;;;;61.83;6.80;;;21.50;44.80;;;;;;4165865;28;20041;-47
2021/09/08 07:34:00;;;;;;;29.50;6.63;;;21.60;45.20;;;;;;4165698;28;20048;-51
2021/09/08 07:36:02;;;;;;;29.92;6.20;;;21.70;45.30;;;;;;4166165;28;20069;-50
2021/09/08 07:38:04;;;;;;;23.73;5.78;;;21.60;45.30;;;;;;4164994;28;20109;-51
2021/09/08 07:40:08;;;;;;;16.50;4.20;;;21.70;45.20;;;;;;4148796;28;20058;-50
2021/09/08 07:42:10;;;;;;;18.80;4.65;;;21.60;45.20;;;;;;4165175;28;20053;-47
2021/09/08 07:44:13;;;;;;;14.95;4.03;;;21.50;45.50;;;;;;4165880;28;20046;-47
2021/09/08 07:46:16;;;;;;;18.77;4.43;;;21.60;45.50;;;;;;4165653;28;20069;-53
2021/09/08 07:48:20;;;;;;;19.52;4.10;;;21.60;45.30;;;;;;4165205;28;20097;-49
2021/09/08 07:50:22;;;;;;;10.98;3.05;;;21.60;45.40;;;;;;4165723;28;20070;-48
2021/09/08 07:52:25;;;;;;;10.77;3.83;;;21.60;45.30;;;;;;4165258;28;20076;-50
2021/09/08 07:54:27;;;;;;;9.48;3.30;;;21.50;45.80;;;;;;4165283;28;20046;-52
2021/09/08 07:56:29;;;;;;;19.05;3.80;;;21.60;45.50;;;;;;4164960;28;20073;-53
2021/09/08 07:58:31;;;;;;;13.02;3.90;;;21.60;45.40;;;;;;4165634;28;20054;-50
2021/09/08 08:00:35;;;;;;;7.00;3.38;;;21.60;45.40;;;;;;4164763;28;20076;-47
2021/09/08 08:02:46;;;;;;;13.27;2.83;;;21.50;45.30;;;;;;4166173;28;20053;-52
2021/09/08 08:04:48;;;;;;;8.02;2.85;;;21.50;45.20;;;;;;4167240;28;20049;-49
2021/09/08 08:06:50;;;;;;;15.52;7.35;;;21.60;45.50;;;;;;4167386;28;20076;-45
2021/09/08 08:08:52;;;;;;;10.48;5.32;;;21.70;45.30;;;;;;4167362;28;20049;-49
2021/09/08 08:10:54;;;;;;;18.58;8.07;;;21.70;45.40;;;;;;4166813;28;20048;-47
2021/09/08 08:12:57;;;;;;;13.25;7.22;;;21.70;45.20;;;;;;4167516;28;20121;-49
2021/09/08 08:14:59;;;;;;;14.77;6.53;;;21.70;45.10;;;;;;4167662;28;20063;-51
2021/09/08 08:17:01;;;;;;;14.25;5.57;;;21.70;45.50;;;;;;4167609;28;20080;-51
2021/09/08 08:19:03;;;;;;;11.35;5.28;;;21.70;45.30;;;;;;4167688;28;20510;-50
2021/09/08 08:21:05;;;;;;;9.23;4.28;;;21.80;45.50;;;;;;4167162;28;20113;-48
2021/09/08 08:23:07;;;;;;;13.43;4.60;;;21.80;45.40;;;;;;4167362;28;20093;-49
2021/09/08 08:25:12;;;;;;;10.82;3.78;;;21.70;45.50;;;;;;4167373;28;20066;-50
2021/09/08 08:27:14;;;;;;;13.70;4.43;;;21.70;45.50;;;;;;4167038;28;20094;-49
2021/09/08 08:29:16;;;;;;;8.45;4.22;;;21.80;45.30;;;;;;4167684;28;20110;-53
2021/09/08 08:31:18;;;;;;;4.35;3.53;;;21.80;45.60;;;;;;4166562;28;20869;-52
2021/09/08 08:33:20;;;;;;;9.38;4.20;;;21.90;45.80;;;;;;4167471;28;20084;-50
2021/09/08 08:35:23;;;;;;;6.63;3.50;;;22.00;45.80;;;;;;4168184;28;20044;-51
2021/09/08 08:37:25;;;;;;;11.23;4.60;;;22.10;45.60;;;;;;4167848;28;20101;-51
2021/09/08 08:39:31;;;;;;;19.55;5.00;;;22.10;45.50;;;;;;4167587;28;20098;-50
2021/09/08 08:41:33;;;;;;;15.82;3.97;;;22.10;46.30;;;;;;4166436;28;20057;-48
2021/09/08 08:43:35;;;;;;;8.40;3.10;;;22.10;46.90;;;;;;4166611;28;20069;-50
2021/09/08 08:45:37;;;;;;;8.18;3.67;;;22.10;50.60;;;;;;4166314;28;20097;-50
2021/09/08 08:47:40;;;;;;;5.20;3.00;;;22.10;51.80;;;;;;4168100;28;20069;-49
2021/09/08 08:49:44;;;;;;;11.68;3.40;;;22.00;46.90;;;;;;4168103;28;20042;-44
2021/09/08 08:51:47;;;;;;;13.70;3.27;;;22.00;47.20;;;;;;4168381;28;20046;-44
2021/09/08 08:53:49;;;;;;;11.27;3.85;;;22.00;47.00;;;;;;4168211;28;20319;-50
2021/09/08 08:55:51;;;;;;;21.13;3.85;;;22.10;47.40;;;;;;4167337;28;20060;-51
2021/09/08 08:57:53;;;;;;;25.10;3.78;;;22.00;46.50;;;;;;4168125;28;20076;-51
2021/09/08 08:59:55;;;;;;;16.15;3.67;;;22.00;46.30;;;;;;4166727;28;20101;-49
2021/09/08 09:02:22;;;;;;;13.98;3.72;;;22.00;46.40;;;;;;4166108;28;20102;-52
2021/09/08 09:04:24;;;;;;;8.55;3.00;;;22.10;46.80;;;;;;4165908;28;20038;-48
2021/09/08 09:06:27;;;;;;;13.20;3.50;;;22.10;46.80;;;;;;4165900;28;20073;-50
2021/09/08 09:08:33;;;;;;;26.40;18.40;;;22.10;46.30;;;;;;4166029;28;20066;-49
2021/09/08 09:10:38;;;;;;;20.85;10.80;;;22.10;46.20;;;;;;4167882;28;20064;-48
2021/09/08 09:12:42;;;;;;;17.92;6.90;;;22.10;46.10;;;;;;4183328;28;20048;-50
2021/09/08 09:14:48;;;;;;;18.88;7.53;;;22.20;46.10;;;;;;4167238;28;20038;-50
2021/09/08 09:16:50;;;;;;;11.63;6.28;;;22.20;45.80;;;;;;4166991;28;20411;-49
2021/09/08 09:18:53;;;;;;;10.75;6.10;;;22.30;45.90;;;;;;4167649;28;20125;-50
2021/09/08 09:20:56;;;;;;;11.38;5.28;;;22.30;45.30;;;;;;4166902;28;20064;-49
2021/09/08 09:23:01;;;;;;;9.88;5.25;;;22.20;45.20;;;;;;4167633;28;20045;-49
2021/09/08 09:25:04;;;;;;;9.75;4.50;;;22.20;45.10;;;;;;4166756;28;20052;-49
2021/09/08 09:27:11;;;;;;;12.32;4.85;;;22.20;45.20;;;;;;4166840;28;20034;-46
2021/09/08 09:29:18;;;;;;;10.32;4.25;;;22.20;45.00;;;;;;4167375;28;20050;-45
2021/09/08 09:31:24;;;;;;;5.80;4.20;;;22.20;45.50;;;;;;4167609;28;20097;-46
2021/09/08 09:33:28;;;;;;;6.88;4.18;;;22.20;44.90;;;;;;4167397;28;20050;-48
2021/09/08 09:35:32;;;;;;;9.95;3.83;;;22.20;45.50;;;;;;4167556;28;20041;-48
2021/09/08 09:37:40;;;;;;;10.80;3.97;;;22.20;44.30;;;;;;4167520;28;20065;-46
2021/09/08 09:39:46;;;;;;;13.80;4.35;;;22.20;45.40;;;;;;4165918;28;20072;-46
2021/09/08 09:41:48;;;;;;;9.52;4.10;;;22.20;45.70;;;;;;4166627;28;20046;-47
2021/09/08 09:43:50;;;;;;;13.82;4.13;;;22.30;45.80;;;;;;4166385;28;20053;-49
2021/09/08 09:45:55;;;;;;;10.70;4.28;;;22.40;45.80;;;;;;4166380;28;20121;-48
2021/09/08 09:48:00;;;;;;;14.27;4.85;;;22.40;45.90;;;;;;4166478;28;20042;-48
2021/09/08 09:50:09;;;;;;;9.88;4.15;;;22.40;46.30;;;;;;4166165;28;20062;-49
2021/09/08 09:52:12;;;;;;;18.67;4.45;;;22.40;46.60;;;;;;4166288;28;20085;-47
2021/09/08 09:54:18;;;;;;;12.25;3.92;;;22.40;46.70;;;;;;4166264;28;20046;-50
2021/09/08 09:56:20;;;;;;;18.40;4.70;;;22.40;46.30;;;;;;4166275;28;20110;-49
2021/09/08 09:58:22;;;;;;;10.10;3.97;;;22.40;46.70;;;;;;4165014;28;20067;-49
2021/09/08 10:00:24;;;;;;;8.98;3.75;;;22.40;46.20;;;;;;4165880;28;20064;-47
2021/09/08 10:02:27;;;;;;;10.38;3.65;;;22.40;46.50;;;;;;4165922;28;20064;-49
2021/09/08 10:04:30;;;;;;;17.30;4.50;;;22.40;46.00;;;;;;4166089;28;20046;-56
2021/09/08 10:06:32;;;;;;;14.75;3.55;;;22.50;46.30;;;;;;4166780;28;20048;-55
2021/09/08 10:08:45;;;;;;;31.50;5.68;;;22.50;45.90;;;;;;4165222;28;20163;-45
2021/09/08 10:10:51;;;;;;;61.08;5.50;;;22.50;47.00;;;;;;4165381;28;20046;-46
2021/09/08 10:13:16;;;;;;;37.13;4.40;;;22.50;47.00;;;;;;4165274;28;20101;-45
2021/09/08 10:15:19;;;;;;;34.33;4.22;;;22.50;47.50;;;;;;4165188;28;20042;-46
2021/09/08 10:17:24;;;;;;;18.48;4.30;;;22.50;45.90;;;;;;4165306;28;20105;-47
2021/09/08 10:19:28;;;;;;;22.65;3.83;;;22.50;46.60;;;;;;4165332;28;20052;-45
2021/09/08 10:21:30;;;;;;;35.28;4.80;;;22.40;46.70;;;;;;4165241;28;20433;-46
2021/09/08 10:23:40;;;;;;;27.67;4.25;;;22.40;45.20;;;;;;4165390;28;20097;-46
2021/09/08 10:25:49;;;;;;;11.65;3.30;;;22.40;45.90;;;;;;4166506;28;20073;-46
2021/09/08 10:27:53;;;;;;;11.32;2.67;;;22.30;44.60;;;;;;4166406;28;20042;-48
2021/09/08 10:30:13;;;;;;;17.10;3.47;;;22.30;43.90;;;;;;4165772;28;20045;-51
2021/09/08 10:32:16;;;;;;;21.13;3.83;;;22.30;44.80;;;;;;4166091;28;20050;-52
2021/09/08 10:34:22;;;;;;;10.18;3.15;;;22.30;44.80;;;;;;4165833;28;20042;-53
2021/09/08 10:36:24;;;;;;;14.43;3.00;;;22.30;43.30;;;;;;4164489;28;20101;-50